createdAt,value
2018-12-17T00:00:47.566Z,98.87
2018-12-17T00:01:47.550Z,98.56
2018-12-17T00:02:47.537Z,98.87
2018-12-17T00:03:47.538Z,98.04
2018-12-17T00:04:47.520Z,98.56
2018-12-17T00:05:47.511Z,98.25
2018-12-17T00:06:47.500Z,97.72
2018-12-17T00:07:47.489Z,97.94
2018-12-17T00:08:47.489Z,98.04
2018-12-17T00:09:47.461Z,97.94
2018-12-17T00:10:47.459Z,97.77
2018-12-17T00:11:47.445Z,97.62
2018-12-17T00:12:47.438Z,97.72
2018-12-17T00:13:47.439Z,98.08
2018-12-17T00:14:47.426Z,97.94
2018-12-17T00:15:47.403Z,97.77
2018-12-17T00:16:47.392Z,97.83
2018-12-17T00:17:47.386Z,97.77
2018-12-17T00:18:47.379Z,97.77
2018-12-17T00:19:47.361Z,97.88
2018-12-17T00:20:47.360Z,98.08
2018-12-17T00:21:47.333Z,98.19
2018-12-17T00:22:47.346Z,97.94
2018-12-17T00:23:47.315Z,97.77
2018-12-17T00:24:47.332Z,97.72
2018-12-17T00:25:47.319Z,98.25
2018-12-17T00:26:47.280Z,98.66
2018-12-17T00:27:47.272Z,98.66
2018-12-17T00:28:47.268Z,98.66
2018-12-17T00:29:47.267Z,98.46
2018-12-17T00:30:47.259Z,98.46
2018-12-17T00:31:47.232Z,98.56
2018-12-17T00:32:47.224Z,98.04
2018-12-17T00:33:47.206Z,97.99
2018-12-17T00:34:47.210Z,98.25
2018-12-17T00:35:47.192Z,98.04
2018-12-17T00:36:47.181Z,97.72
2018-12-17T00:37:47.167Z,98.04
2018-12-17T00:38:47.156Z,97.78
2018-12-17T00:39:47.169Z,97.94
2018-12-17T00:40:47.129Z,98.20
2018-12-17T00:41:47.126Z,98.31
2018-12-17T00:42:47.113Z,98.52
2018-12-17T00:43:47.124Z,98.31
2018-12-17T00:44:47.124Z,98.52
2018-12-17T00:45:47.093Z,98.66
2018-12-17T00:46:47.069Z,97.58
2018-12-17T00:47:47.068Z,97.78
2018-12-17T00:48:47.052Z,98.20
2018-12-17T00:49:47.050Z,97.58
2018-12-17T00:50:47.028Z,97.68
2018-12-17T00:51:47.022Z,97.99
2018-12-17T00:52:47.001Z,98.20
2018-12-17T00:53:46.993Z,97.78
2018-12-17T00:54:47.004Z,97.68
2018-12-17T00:55:46.969Z,97.68
2018-12-17T00:56:46.967Z,97.89
2018-12-17T00:57:46.953Z,97.78
2018-12-17T00:58:46.941Z,97.78
2018-12-17T00:59:46.927Z,97.89
2018-12-17T01:00:46.942Z,97.68
2018-12-17T01:01:46.915Z,97.68
2018-12-17T01:02:46.901Z,97.89
2018-12-17T01:03:46.896Z,97.89
2018-12-17T01:04:46.878Z,98.20
2018-12-17T01:05:46.880Z,98.10
2018-12-17T01:06:46.854Z,97.89
2018-12-17T01:07:46.843Z,98.10
2018-12-17T01:08:46.844Z,97.89
2018-12-17T01:09:46.826Z,97.58
2018-12-17T01:10:46.828Z,97.89
2018-12-17T01:11:46.809Z,98.10
2018-12-17T01:12:46.788Z,97.89
2018-12-17T01:13:46.779Z,97.89
2018-12-17T01:14:46.777Z,97.68
2018-12-17T01:15:46.776Z,97.78
2018-12-17T01:16:46.757Z,97.78
2018-12-17T01:17:46.742Z,97.78
2018-12-17T01:18:46.750Z,97.68
2018-12-17T01:19:46.713Z,97.89
2018-12-17T01:20:46.710Z,97.89
2018-12-17T01:21:46.716Z,97.47
2018-12-17T01:22:46.686Z,97.89
2018-12-17T01:23:46.679Z,98.20
2018-12-17T01:24:46.659Z,98.20
2018-12-17T01:25:46.652Z,98.52
2018-12-17T01:26:46.651Z,98.52
2018-12-17T01:27:46.631Z,98.41
2018-12-17T01:28:46.627Z,98.52
2018-12-17T01:29:46.610Z,98.20
2018-12-17T01:30:46.597Z,98.41
2018-12-17T01:31:46.616Z,98.62
2018-12-17T01:32:46.582Z,98.31
2018-12-17T01:33:46.572Z,98.10
2018-12-17T01:34:46.564Z,98.72
2018-12-17T01:35:46.617Z,98.41
2018-12-17T01:36:46.549Z,98.52
2018-12-17T01:37:46.527Z,98.26
2018-12-17T01:38:46.513Z,98.99
2018-12-17T01:39:46.504Z,99.35
2018-12-17T01:40:46.499Z,98.99
2018-12-17T01:41:46.499Z,98.88
2018-12-17T01:42:46.484Z,98.88
2018-12-17T01:43:46.464Z,98.57
2018-12-17T01:44:46.447Z,98.83
2018-12-17T01:45:46.445Z,98.47
2018-12-17T01:46:46.436Z,98.57
2018-12-17T01:47:46.434Z,98.47
2018-12-17T01:48:46.403Z,98.26
2018-12-17T01:49:46.396Z,97.95
2018-12-17T01:50:46.384Z,97.95
2018-12-17T01:51:46.372Z,98.05
2018-12-17T01:52:46.381Z,98.05
2018-12-17T01:53:46.355Z,97.85
2018-12-17T01:54:46.362Z,97.95
2018-12-17T01:55:46.355Z,97.74
2018-12-17T01:56:46.318Z,97.53
2018-12-17T01:57:46.329Z,97.68
2018-12-17T01:58:46.300Z,97.85
2018-12-17T01:59:46.288Z,98.16
2018-12-17T02:00:46.284Z,97.74
2018-12-17T02:01:46.276Z,98.47
2018-12-17T02:02:46.279Z,98.16
2018-12-17T02:03:46.248Z,98.88
2018-12-17T02:04:46.256Z,98.88
2018-12-17T02:05:46.230Z,98.88
2018-12-17T02:06:46.222Z,98.78
2018-12-17T02:07:46.211Z,98.57
2018-12-17T02:08:46.209Z,98.68
2018-12-17T02:09:46.185Z,98.88
2018-12-17T02:10:46.176Z,98.68
2018-12-17T02:11:46.165Z,98.78
2018-12-17T02:12:46.164Z,99.10
2018-12-17T02:13:46.147Z,98.99
2018-12-17T02:14:46.172Z,98.78
2018-12-17T02:15:46.127Z,98.88
2018-12-17T02:16:46.119Z,98.93
2018-12-17T02:17:46.104Z,99.04
2018-12-17T02:18:46.092Z,98.83
2018-12-17T02:19:46.087Z,98.78
2018-12-17T02:20:46.066Z,98.62
2018-12-17T02:21:46.075Z,98.99
2018-12-17T02:22:46.048Z,99.20
2018-12-17T02:23:46.046Z,98.78
2018-12-17T02:24:46.032Z,98.99
2018-12-17T02:25:46.020Z,99.10
2018-12-17T02:26:46.008Z,99.10
2018-12-17T02:27:46.030Z,98.99
2018-12-17T02:28:45.982Z,99.10
2018-12-17T02:29:45.987Z,98.88
2018-12-17T02:30:45.962Z,99.14
2018-12-17T02:31:45.949Z,98.93
2018-12-17T02:32:45.961Z,99.41
2018-12-17T02:33:45.949Z,99.51
2018-12-17T02:34:45.932Z,99.62
2018-12-17T02:35:45.978Z,99.41
2018-12-17T02:36:45.908Z,99.99
2018-12-17T02:37:45.922Z,99.99
2018-12-17T02:38:45.886Z,99.36
2018-12-17T02:39:45.885Z,99.41
2018-12-17T02:40:45.855Z,99.72
2018-12-17T02:41:45.848Z,99.62
2018-12-17T02:42:45.836Z,99.72
2018-12-17T02:43:45.836Z,98.88
2018-12-17T02:44:45.823Z,98.88
2018-12-17T02:45:45.810Z,98.68
2018-12-17T02:46:45.847Z,99.10
2018-12-17T02:47:45.792Z,98.99
2018-12-17T02:48:45.783Z,98.99
2018-12-17T02:49:45.775Z,99.10
2018-12-17T02:50:45.761Z,99.20
2018-12-17T02:51:45.794Z,99.30
2018-12-17T02:52:45.727Z,99.41
2018-12-17T02:53:45.721Z,99.46
2018-12-17T02:54:45.722Z,99.36
2018-12-17T02:55:45.697Z,99.36
2018-12-17T02:56:45.694Z,99.46
2018-12-17T02:57:45.745Z,99.57
2018-12-17T02:58:45.684Z,99.26
2018-12-17T02:59:45.668Z,99.26
2018-12-17T03:00:45.682Z,99.36
2018-12-17T03:01:45.642Z,99.99
2018-12-17T03:02:45.626Z,99.26
2018-12-17T03:03:45.716Z,99.57
2018-12-17T03:04:45.612Z,99.99
2018-12-17T03:05:45.607Z,99.46
2018-12-17T03:06:45.581Z,99.15
2018-12-17T03:07:45.569Z,99.15
2018-12-17T03:08:45.571Z,99.57
2018-12-17T03:09:45.554Z,99.77
2018-12-17T03:10:45.552Z,99.67
2018-12-17T03:11:45.546Z,99.88
2018-12-17T03:12:45.523Z,99.99
2018-12-17T03:13:45.535Z,99.57
2018-12-17T03:14:45.503Z,99.57
2018-12-17T03:15:45.486Z,99.77
2018-12-17T03:16:45.494Z,99.57
2018-12-17T03:17:45.467Z,99.46
2018-12-17T03:18:45.460Z,99.57
2018-12-17T03:19:45.450Z,99.57
2018-12-17T03:20:45.432Z,99.57
2018-12-17T03:21:45.438Z,99.77
2018-12-17T03:22:45.420Z,99.99
2018-12-17T03:23:45.428Z,99.57
2018-12-17T03:24:45.391Z,99.99
2018-12-17T03:25:45.385Z,99.77
2018-12-17T03:26:45.370Z,99.15
2018-12-17T03:27:45.370Z,99.88
2018-12-17T03:28:51.630Z,99.26
2018-12-17T03:29:46.344Z,99.26
2018-12-17T03:30:45.335Z,99.67
2018-12-17T03:31:45.327Z,99.77
2018-12-17T03:32:45.344Z,99.57
2018-12-17T03:33:45.299Z,99.26
2018-12-17T03:34:45.291Z,99.36
2018-12-17T03:35:45.285Z,99.05
2018-12-17T03:36:45.297Z,99.05
2018-12-17T03:37:45.276Z,98.84
2018-12-17T03:38:45.248Z,99.15
2018-12-17T03:39:45.233Z,99.15
2018-12-17T03:40:45.249Z,99.36
2018-12-17T03:41:45.218Z,99.67
2018-12-17T03:42:45.222Z,99.36
2018-12-17T03:43:45.209Z,99.77
2018-12-17T03:44:45.181Z,99.67
2018-12-17T03:45:45.176Z,99.67
2018-12-17T03:46:45.175Z,99.46
2018-12-17T03:47:45.163Z,99.57
2018-12-17T03:48:45.150Z,99.99
2018-12-17T03:49:45.145Z,99.99
2018-12-17T03:50:45.126Z,99.99
2018-12-17T03:51:45.115Z,99.99
2018-12-17T03:52:45.107Z,99.99
2018-12-17T03:53:45.090Z,99.99
2018-12-17T03:54:45.083Z,99.63
2018-12-17T03:55:45.073Z,99.52
2018-12-17T03:56:45.089Z,99.63
2018-12-17T03:57:45.063Z,99.63
2018-12-17T03:58:45.037Z,99.84
2018-12-17T03:59:45.024Z,99.63
2018-12-17T04:00:45.024Z,99.99
2018-12-17T04:01:45.012Z,99.99
2018-12-17T04:02:45.014Z,99.99
2018-12-17T04:03:44.990Z,99.99
2018-12-17T04:04:44.973Z,99.99
2018-12-17T04:05:44.964Z,99.99
2018-12-17T04:06:44.955Z,99.99
2018-12-17T04:07:44.943Z,99.99
2018-12-17T04:08:44.951Z,99.99
2018-12-17T04:09:44.934Z,99.88
2018-12-17T04:10:44.921Z,99.77
2018-12-17T04:11:44.899Z,99.99
2018-12-17T04:12:44.895Z,99.77
2018-12-17T04:13:44.899Z,99.63
2018-12-17T04:14:44.888Z,99.99
2018-12-17T04:15:44.865Z,99.99
2018-12-17T04:16:44.845Z,99.94
2018-12-17T04:17:44.843Z,99.52
2018-12-17T04:18:44.842Z,99.52
2018-12-17T04:19:44.833Z,99.63
2018-12-17T04:20:44.813Z,99.99
2018-12-17T04:21:44.799Z,99.94
2018-12-17T04:22:44.787Z,99.99
2018-12-17T04:23:44.791Z,99.84
2018-12-17T04:24:44.779Z,99.73
2018-12-17T04:25:44.752Z,99.63
2018-12-17T04:26:44.745Z,99.63
2018-12-17T04:27:44.739Z,99.99
2018-12-17T04:28:44.725Z,99.52
2018-12-17T04:29:44.766Z,99.73
2018-12-17T04:30:44.705Z,99.94
2018-12-17T04:31:44.692Z,99.73
2018-12-17T04:32:44.696Z,99.68
2018-12-17T04:33:44.673Z,99.68
2018-12-17T04:34:44.680Z,99.90
2018-12-17T04:35:44.655Z,99.68
2018-12-17T04:36:44.639Z,99.79
2018-12-17T04:37:44.627Z,99.16
2018-12-17T04:38:44.622Z,99.58
2018-12-17T04:39:44.606Z,99.37
2018-12-17T04:40:44.623Z,99.48
2018-12-17T04:41:44.588Z,98.75
2018-12-17T04:42:44.586Z,98.75
2018-12-17T04:43:44.561Z,98.96
2018-12-17T04:44:44.562Z,98.85
2018-12-17T04:45:44.549Z,99.16
2018-12-17T04:46:44.553Z,98.96
2018-12-17T04:47:44.530Z,98.75
2018-12-17T04:48:44.509Z,98.75
2018-12-17T04:49:44.517Z,98.85
2018-12-17T04:50:44.500Z,98.75
2018-12-17T04:51:44.494Z,98.96
2018-12-17T04:52:44.498Z,99.16
2018-12-17T04:53:44.464Z,99.27
2018-12-17T04:54:44.457Z,99.06
2018-12-17T04:55:44.447Z,99.27
2018-12-17T04:56:44.630Z,99.16
2018-12-17T04:57:44.421Z,99.16
2018-12-17T04:58:44.412Z,98.96
2018-12-17T04:59:44.399Z,99.16
2018-12-17T05:00:44.387Z,98.96
2018-12-17T05:01:44.375Z,99.27
2018-12-17T05:02:44.373Z,99.16
2018-12-17T05:03:44.361Z,98.85
2018-12-17T05:04:44.351Z,98.69
2018-12-17T05:05:44.374Z,98.96
2018-12-17T05:06:44.332Z,98.44
2018-12-17T05:07:44.332Z,98.54
2018-12-17T05:08:44.302Z,98.54
2018-12-17T05:09:44.530Z,98.02
2018-12-17T05:10:44.278Z,98.13
2018-12-17T05:11:44.270Z,98.13
2018-12-17T05:12:44.263Z,98.02
2018-12-17T05:13:44.340Z,98.44
2018-12-17T05:14:44.238Z,98.54
2018-12-17T05:15:44.252Z,98.33
2018-12-17T05:16:44.230Z,98.54
2018-12-17T05:17:44.227Z,98.75
2018-12-17T05:18:44.203Z,98.65
2018-12-17T05:19:44.189Z,98.96
2018-12-17T05:20:44.182Z,98.75
2018-12-17T05:21:44.176Z,98.75
2018-12-17T05:22:44.156Z,98.75
2018-12-17T05:23:44.147Z,98.75
2018-12-17T05:24:44.141Z,98.23
2018-12-17T05:25:44.132Z,98.65
2018-12-17T05:26:44.129Z,98.71
2018-12-17T05:27:44.110Z,98.60
2018-12-17T05:28:44.112Z,98.85
2018-12-17T05:29:44.079Z,98.39
2018-12-17T05:30:44.081Z,98.29
2018-12-17T05:31:44.086Z,97.88
2018-12-17T05:32:44.053Z,97.81
2018-12-17T05:33:44.039Z,98.19
2018-12-17T05:34:44.044Z,98.08
2018-12-17T05:35:44.023Z,98.60
2018-12-17T05:36:44.011Z,98.60
2018-12-17T05:37:44.003Z,98.29
2018-12-17T05:38:44.011Z,98.50
2018-12-17T05:39:43.981Z,98.29
2018-12-17T05:40:43.979Z,98.29
2018-12-17T05:41:43.973Z,98.08
2018-12-17T05:42:43.944Z,97.88
2018-12-17T05:43:43.944Z,98.08
2018-12-17T05:44:43.927Z,98.39
2018-12-17T05:45:43.922Z,98.39
2018-12-17T05:46:43.902Z,98.39
2018-12-17T05:47:43.906Z,98.19
2018-12-17T05:48:43.886Z,98.29
2018-12-17T05:49:43.880Z,97.77
2018-12-17T05:50:43.869Z,97.98
2018-12-17T05:51:43.875Z,97.98
2018-12-17T05:52:43.880Z,97.98
2018-12-17T05:53:43.836Z,97.98
2018-12-17T05:54:43.854Z,97.93
2018-12-17T05:55:44.344Z,97.72
2018-12-17T05:56:43.800Z,97.67
2018-12-17T05:57:43.837Z,97.52
2018-12-17T05:58:43.784Z,97.62
2018-12-17T05:59:43.783Z,97.72
2018-12-17T06:00:43.754Z,97.62
2018-12-17T06:01:43.760Z,97.67
2018-12-17T06:02:43.739Z,97.45
2018-12-17T06:03:43.726Z,97.62
2018-12-17T06:04:43.713Z,97.93
2018-12-17T06:05:43.713Z,97.67
2018-12-17T06:06:43.687Z,97.52
2018-12-17T06:07:43.681Z,97.83
2018-12-17T06:08:43.674Z,97.52
2018-12-17T06:09:43.665Z,97.41
2018-12-17T06:10:43.664Z,97.41
2018-12-17T06:11:43.641Z,97.41
2018-12-17T06:12:43.628Z,97.62
2018-12-17T06:13:43.625Z,97.41
2018-12-17T06:14:43.635Z,97.52
2018-12-17T06:15:43.609Z,97.27
2018-12-17T06:16:43.588Z,97.72
2018-12-17T06:17:43.586Z,97.62
2018-12-17T06:18:43.572Z,97.93
2018-12-17T06:19:43.554Z,98.03
2018-12-17T06:20:43.555Z,98.24
2018-12-17T06:21:43.539Z,97.93
2018-12-17T06:22:43.528Z,97.83
2018-12-17T06:23:43.524Z,97.93
2018-12-17T06:24:43.515Z,98.03
2018-12-17T06:25:43.487Z,98.03
2018-12-17T06:26:43.475Z,97.93
2018-12-17T06:27:43.478Z,97.83
2018-12-17T06:28:43.474Z,97.83
2018-12-17T06:29:43.452Z,97.99
2018-12-17T06:30:43.443Z,98.72
2018-12-17T06:31:43.425Z,98.86
2018-12-17T06:32:43.413Z,98.61
2018-12-17T06:33:43.400Z,99.18
2018-12-17T06:34:43.424Z,99.03
2018-12-17T06:35:43.385Z,98.61
2018-12-17T06:36:43.374Z,98.82
2018-12-17T06:37:43.359Z,98.72
2018-12-17T06:38:43.347Z,98.82
2018-12-17T06:39:43.356Z,98.86
2018-12-17T06:40:43.332Z,98.72
2018-12-17T06:41:43.322Z,99.03
2018-12-17T06:42:43.343Z,99.07
2018-12-17T06:43:43.302Z,99.03
2018-12-17T06:44:43.288Z,99.13
2018-12-17T06:45:43.283Z,99.13
2018-12-17T06:46:43.260Z,99.65
2018-12-17T06:47:43.271Z,99.55
2018-12-17T06:48:43.244Z,99.65
2018-12-17T06:49:43.249Z,99.34
2018-12-17T06:50:43.218Z,99.34
2018-12-17T06:51:43.212Z,99.34
2018-12-17T06:52:43.207Z,99.44
2018-12-17T06:53:43.195Z,99.44
2018-12-17T06:54:43.196Z,99.34
2018-12-17T06:55:43.187Z,99.34
2018-12-17T06:56:43.162Z,99.34
2018-12-17T06:57:43.143Z,99.44
2018-12-17T06:58:43.133Z,99.65
2018-12-17T06:59:43.132Z,99.44
2018-12-17T07:00:43.120Z,99.65
2018-12-17T07:01:43.132Z,99.34
2018-12-17T07:02:43.098Z,99.24
2018-12-17T07:03:43.085Z,99.34
2018-12-17T07:04:43.071Z,99.55
2018-12-17T07:05:43.073Z,99.65
2018-12-17T07:06:43.056Z,99.65
2018-12-17T07:07:43.042Z,99.34
2018-12-17T07:08:43.029Z,99.34
2018-12-17T07:09:43.017Z,99.13
2018-12-17T07:10:43.039Z,98.78
2018-12-17T07:11:43.000Z,98.72
2018-12-17T07:12:43.002Z,98.61
2018-12-17T07:13:42.981Z,98.88
2018-12-17T07:14:42.994Z,98.78
2018-12-17T07:15:42.969Z,98.36
2018-12-17T07:16:42.946Z,98.16
2018-12-17T07:17:42.931Z,98.68
2018-12-17T07:18:42.919Z,98.36
2018-12-17T07:19:42.927Z,98.16
2018-12-17T07:20:42.927Z,98.21
2018-12-17T07:21:42.913Z,98.16
2018-12-17T07:22:42.876Z,97.85
2018-12-17T07:23:42.869Z,97.85
2018-12-17T07:24:42.861Z,98.05
2018-12-17T07:25:42.858Z,98.05
2018-12-17T07:26:42.864Z,97.85
2018-12-17T07:27:42.834Z,97.85
2018-12-17T07:28:42.826Z,97.64
2018-12-17T07:29:49.574Z,98.36
2018-12-17T07:30:43.797Z,98.36
2018-12-17T07:31:42.787Z,98.47
2018-12-17T07:32:42.821Z,98.57
2018-12-17T07:33:42.772Z,98.36
2018-12-17T07:34:42.763Z,97.64
2018-12-17T07:35:42.746Z,97.80
2018-12-17T07:36:42.746Z,97.69
2018-12-17T07:37:42.721Z,98.05
2018-12-17T07:38:42.719Z,98.32
2018-12-17T07:39:42.708Z,98.00
2018-12-17T07:40:42.693Z,98.21
2018-12-17T07:41:42.708Z,98.11
2018-12-17T07:42:42.668Z,98.00
2018-12-17T07:43:42.681Z,98.11
2018-12-17T07:44:42.658Z,98.21
2018-12-17T07:45:42.648Z,97.80
2018-12-17T07:46:42.637Z,98.16
2018-12-17T07:47:42.635Z,97.80
2018-12-17T07:48:42.607Z,97.95
2018-12-17T07:49:42.595Z,97.85
2018-12-17T07:50:42.596Z,97.90
2018-12-17T07:51:42.582Z,97.95
2018-12-17T07:52:42.580Z,97.64
2018-12-17T07:53:42.564Z,98.32
2018-12-17T07:54:42.544Z,98.68
2018-12-17T07:55:42.537Z,98.11
2018-12-17T07:56:42.558Z,98.73
2018-12-17T07:57:42.529Z,98.21
2018-12-17T07:58:42.513Z,98.52
2018-12-17T07:59:42.497Z,98.32
2018-12-17T08:00:42.483Z,97.80
2018-12-17T08:01:42.476Z,97.90
2018-12-17T08:02:42.470Z,97.80
2018-12-17T08:03:42.452Z,97.90
2018-12-17T08:04:42.444Z,97.69
2018-12-17T08:05:42.440Z,98.32
2018-12-17T08:06:42.446Z,98.42
2018-12-17T08:07:44.144Z,98.57
2018-12-17T08:08:42.399Z,98.32
2018-12-17T08:09:42.385Z,97.49
2018-12-17T08:10:42.385Z,97.80
2018-12-17T08:11:42.368Z,98.21
2018-12-17T08:12:42.358Z,98.16
2018-12-17T08:13:42.733Z,98.05
2018-12-17T08:14:42.340Z,97.85
2018-12-17T08:15:42.324Z,97.80
2018-12-17T08:16:42.316Z,98.11
2018-12-17T08:17:42.308Z,98.26
2018-12-17T08:18:42.299Z,97.95
2018-12-17T08:19:42.324Z,97.90
2018-12-17T08:20:42.287Z,98.05
2018-12-17T08:21:42.260Z,98.42
2018-12-17T08:22:42.249Z,98.21
2018-12-17T08:23:42.240Z,98.63
2018-12-17T08:24:42.246Z,98.68
2018-12-17T08:25:42.228Z,98.83
2018-12-17T08:26:42.407Z,98.52
2018-12-17T08:27:42.204Z,98.63
2018-12-17T08:28:42.202Z,98.32
2018-12-17T08:29:42.198Z,98.32
2018-12-17T08:30:42.185Z,98.42
2018-12-17T08:31:42.160Z,97.38
2018-12-17T08:32:42.144Z,97.43
2018-12-17T08:33:42.130Z,98.36
2018-12-17T08:34:42.149Z,98.36
2018-12-17T08:35:42.113Z,97.95
2018-12-17T08:36:42.109Z,98.16
2018-12-17T08:37:42.098Z,97.69
2018-12-17T08:38:42.086Z,98.11
2018-12-17T08:39:42.091Z,97.95
2018-12-17T08:40:42.060Z,97.95
2018-12-17T08:41:42.048Z,98.16
2018-12-17T08:42:42.057Z,98.11
2018-12-17T08:43:42.030Z,97.69
2018-12-17T08:44:42.019Z,97.80
2018-12-17T08:45:42.018Z,98.11
2018-12-17T08:46:41.993Z,97.69
2018-12-17T08:47:41.989Z,97.59
2018-12-17T08:48:41.978Z,97.90
2018-12-17T08:49:41.990Z,97.80
2018-12-17T08:50:41.974Z,97.49
2018-12-17T08:51:41.947Z,98.52
2018-12-17T08:52:41.947Z,98.21
2018-12-17T08:53:41.921Z,98.52
2018-12-17T08:54:41.912Z,98.42
2018-12-17T08:55:41.903Z,98.32
2018-12-17T08:56:41.916Z,98.32
2018-12-17T08:57:41.886Z,98.42
2018-12-17T08:58:41.870Z,98.42
2018-12-17T08:59:41.862Z,97.80
2018-12-17T09:00:41.867Z,98.11
2018-12-17T09:01:41.846Z,97.80
2018-12-17T09:02:41.836Z,97.90
2018-12-17T09:03:41.824Z,97.90
2018-12-17T09:04:41.807Z,97.69
2018-12-17T09:05:41.796Z,97.69
2018-12-17T09:06:41.803Z,97.80
2018-12-17T09:07:41.779Z,97.80
2018-12-17T09:08:41.779Z,98.21
2018-12-17T09:09:41.752Z,98.32
2018-12-17T09:10:41.752Z,98.21
2018-12-17T09:11:41.738Z,98.07
2018-12-17T09:12:41.727Z,97.86
2018-12-17T09:13:41.719Z,98.17
2018-12-17T09:14:41.700Z,98.07
2018-12-17T09:15:41.723Z,97.96
2018-12-17T09:16:41.694Z,97.96
2018-12-17T09:17:41.678Z,98.07
2018-12-17T09:18:41.666Z,97.96
2018-12-17T09:19:41.659Z,97.86
2018-12-17T09:20:41.641Z,97.75
2018-12-17T09:21:41.638Z,98.12
2018-12-17T09:22:41.614Z,97.75
2018-12-17T09:23:41.606Z,97.44
2018-12-17T09:24:41.611Z,97.44
2018-12-17T09:25:41.621Z,97.39
2018-12-17T09:26:41.594Z,97.24
2018-12-17T09:27:41.566Z,97.71
2018-12-17T09:28:41.555Z,97.29
2018-12-17T09:29:41.551Z,97.50
2018-12-17T09:30:41.744Z,97.60
2018-12-17T09:31:41.642Z,97.29
2018-12-17T09:32:41.515Z,97.50
2018-12-17T09:33:41.497Z,97.71
2018-12-17T09:34:41.521Z,97.97
2018-12-17T09:35:41.479Z,98.08
2018-12-17T09:36:41.484Z,97.97
2018-12-17T09:37:41.462Z,98.08
2018-12-17T09:38:41.459Z,97.77
2018-12-17T09:39:41.441Z,97.77
2018-12-17T09:40:41.426Z,97.14
2018-12-17T09:41:41.423Z,97.14
2018-12-17T09:42:41.405Z,97.66
2018-12-17T09:43:41.394Z,97.93
2018-12-17T09:44:41.386Z,98.03
2018-12-17T09:45:41.375Z,97.83
2018-12-17T09:46:41.372Z,97.52
2018-12-17T09:47:41.349Z,97.52
2018-12-17T09:48:41.360Z,97.52
2018-12-17T09:49:41.333Z,97.83
2018-12-17T09:50:41.323Z,97.41
2018-12-17T09:51:41.310Z,97.10
2018-12-17T09:52:41.311Z,97.31
2018-12-17T09:53:41.281Z,97.52
2018-12-17T09:54:41.271Z,97.10
2018-12-17T09:55:41.262Z,97.10
2018-12-17T09:56:41.257Z,97.10
2018-12-17T09:57:41.263Z,97.10
2018-12-17T09:58:41.236Z,97.62
2018-12-17T09:59:41.221Z,97.62
2018-12-17T10:00:41.209Z,98.03
2018-12-17T10:01:41.215Z,97.93
2018-12-17T10:02:41.191Z,98.03
2018-12-17T10:03:41.922Z,97.62
2018-12-17T10:04:41.167Z,97.41
2018-12-17T10:05:41.152Z,97.10
2018-12-17T10:06:41.140Z,97.20
2018-12-17T10:07:41.132Z,97.06
2018-12-17T10:08:41.134Z,97.16
2018-12-17T10:09:41.118Z,97.41
2018-12-17T10:10:41.105Z,97.36
2018-12-17T10:11:41.114Z,97.88
2018-12-17T10:12:41.079Z,97.36
2018-12-17T10:13:41.077Z,97.06
2018-12-17T10:14:41.054Z,97.26
2018-12-17T10:15:41.051Z,97.06
2018-12-17T10:16:41.040Z,97.47
2018-12-17T10:17:41.037Z,97.57
2018-12-17T10:18:41.043Z,96.75
2018-12-17T10:19:41.002Z,96.54
2018-12-17T10:20:40.995Z,96.54
2018-12-17T10:21:40.985Z,96.49
2018-12-17T10:22:40.979Z,96.80
2018-12-17T10:23:40.966Z,96.91
2018-12-17T10:24:40.981Z,96.70
2018-12-17T10:25:40.937Z,95.73
2018-12-17T10:26:40.927Z,94.79
2018-12-17T10:27:40.918Z,95.00
2018-12-17T10:28:40.923Z,95.10
2018-12-17T10:29:40.905Z,95.21
2018-12-17T10:30:40.891Z,94.48
2018-12-17T10:31:40.877Z,94.44
2018-12-17T10:32:40.878Z,93.51
2018-12-17T10:33:40.852Z,94.54
2018-12-17T10:34:40.879Z,93.30
2018-12-17T10:35:40.835Z,93.72
2018-12-17T10:36:40.823Z,93.55
2018-12-17T10:37:40.809Z,93.51
2018-12-17T10:38:40.799Z,93.72
2018-12-17T10:39:40.802Z,93.41
2018-12-17T10:40:40.786Z,93.93
2018-12-17T10:41:40.777Z,93.93
2018-12-17T10:42:40.764Z,93.41
2018-12-17T10:43:40.750Z,92.48
2018-12-17T10:44:40.751Z,92.89
2018-12-17T10:45:40.723Z,92.85
2018-12-17T10:46:40.715Z,93.88
2018-12-17T10:47:40.738Z,93.47
2018-12-17T10:48:40.757Z,93.16
2018-12-17T10:49:40.690Z,92.64
2018-12-17T10:50:40.683Z,92.85
2018-12-17T10:51:40.663Z,92.44
2018-12-17T10:52:40.654Z,92.64
2018-12-17T10:53:40.645Z,92.23
2018-12-17T10:54:40.646Z,92.79
2018-12-17T10:55:40.622Z,92.44
2018-12-17T10:56:40.627Z,91.61
2018-12-17T10:57:40.628Z,91.61
2018-12-17T10:58:40.606Z,91.26
2018-12-17T10:59:40.576Z,91.71
2018-12-17T11:00:40.577Z,91.98
2018-12-17T11:01:40.561Z,91.71
2018-12-17T11:02:40.552Z,91.46
2018-12-17T11:03:40.538Z,91.50
2018-12-17T11:04:40.521Z,91.56
2018-12-17T11:05:40.521Z,91.56
2018-12-17T11:06:40.507Z,91.26
2018-12-17T11:07:40.494Z,91.05
2018-12-17T11:08:40.479Z,91.77
2018-12-17T11:09:40.465Z,91.16
2018-12-17T11:10:40.486Z,91.26
2018-12-17T11:11:40.446Z,91.22
2018-12-17T11:12:40.450Z,91.32
2018-12-17T11:13:40.430Z,91.42
2018-12-17T11:14:40.421Z,90.59
2018-12-17T11:15:40.423Z,90.70
2018-12-17T11:16:40.396Z,89.87
2018-12-17T11:17:40.379Z,89.81
2018-12-17T11:18:40.371Z,90.28
2018-12-17T11:19:40.361Z,89.87
2018-12-17T11:20:40.368Z,90.04
2018-12-17T11:21:40.358Z,90.86
2018-12-17T11:22:40.325Z,89.77
2018-12-17T11:23:40.317Z,89.01
2018-12-17T11:24:40.310Z,90.04
2018-12-17T11:25:40.320Z,89.42
2018-12-17T11:26:40.294Z,90.14
2018-12-17T11:27:40.281Z,89.83
2018-12-17T11:28:40.264Z,89.94
2018-12-17T11:29:40.252Z,90.04
2018-12-17T11:30:46.362Z,89.79
2018-12-17T11:31:41.243Z,90.00
2018-12-17T11:32:40.226Z,88.96
2018-12-17T11:33:40.222Z,88.56
2018-12-17T11:34:40.205Z,87.63
2018-12-17T11:35:41.317Z,88.24
2018-12-17T11:36:40.191Z,88.86
2018-12-17T11:37:40.168Z,88.96
2018-12-17T11:38:40.173Z,88.51
2018-12-17T11:39:40.152Z,88.20
2018-12-17T11:40:40.135Z,88.31
2018-12-17T11:41:40.141Z,87.99
2018-12-17T11:42:40.114Z,88.41
2018-12-17T11:43:43.835Z,87.69
2018-12-17T11:44:40.096Z,87.48
2018-12-17T11:45:40.087Z,87.27
2018-12-17T11:46:40.079Z,87.24
2018-12-17T11:47:40.075Z,88.06
2018-12-17T11:48:40.050Z,87.85
2018-12-17T11:49:40.040Z,85.63
2018-12-17T11:50:40.027Z,86.61
2018-12-17T11:51:40.018Z,86.52
2018-12-17T11:52:40.024Z,85.38
2018-12-17T11:53:40.005Z,86.31
2018-12-17T11:54:39.985Z,85.65
2018-12-17T11:55:39.988Z,86.47
2018-12-17T11:56:39.970Z,86.79
2018-12-17T11:57:39.973Z,86.27
2018-12-17T11:58:39.950Z,85.30
2018-12-17T11:59:39.935Z,85.71
2018-12-17T12:00:39.923Z,85.82
2018-12-17T12:01:39.909Z,84.99
2018-12-17T12:02:39.916Z,84.54
2018-12-17T12:03:39.893Z,84.23
2018-12-17T12:04:39.887Z,84.13
2018-12-17T12:05:39.877Z,83.62
2018-12-17T12:06:39.886Z,84.75
2018-12-17T12:07:39.853Z,84.75
2018-12-17T12:08:39.848Z,84.34
2018-12-17T12:09:39.835Z,84.54
2018-12-17T12:10:39.822Z,83.83
2018-12-17T12:11:39.809Z,84.81
2018-12-17T12:12:39.794Z,84.54
2018-12-17T12:13:39.796Z,83.62
2018-12-17T12:14:39.770Z,83.92
2018-12-17T12:15:39.763Z,84.85
2018-12-17T12:16:39.753Z,84.03
2018-12-17T12:17:39.748Z,83.51
2018-12-17T12:18:39.750Z,83.11
2018-12-17T12:19:39.724Z,83.72
2018-12-17T12:20:39.710Z,83.51
2018-12-17T12:21:39.694Z,84.44
2018-12-17T12:22:39.688Z,83.00
2018-12-17T12:23:39.695Z,83.31
2018-12-17T12:24:39.671Z,84.13
2018-12-17T12:25:39.665Z,84.03
2018-12-17T12:26:39.643Z,82.90
2018-12-17T12:27:39.638Z,83.92
2018-12-17T12:28:39.637Z,83.62
2018-12-17T12:29:39.633Z,83.97
2018-12-17T12:30:39.610Z,82.53
2018-12-17T12:31:39.597Z,82.32
2018-12-17T12:32:39.591Z,83.55
2018-12-17T12:33:39.568Z,81.81
2018-12-17T12:34:39.566Z,83.25
2018-12-17T12:35:39.548Z,82.42
2018-12-17T12:36:39.540Z,82.01
2018-12-17T12:37:39.537Z,81.91
2018-12-17T12:38:39.522Z,81.49
2018-12-17T12:39:39.519Z,81.19
2018-12-17T12:40:39.521Z,82.21
2018-12-17T12:41:39.485Z,83.41
2018-12-17T12:42:39.483Z,82.90
2018-12-17T12:43:39.471Z,80.63
2018-12-17T12:44:39.451Z,80.22
2018-12-17T12:45:39.454Z,80.33
2018-12-17T12:46:39.426Z,81.35
2018-12-17T12:47:39.420Z,80.84
2018-12-17T12:48:39.415Z,81.97
2018-12-17T12:49:39.402Z,78.78
2018-12-17T12:50:39.396Z,80.53
2018-12-17T12:51:39.392Z,83.11
2018-12-17T12:52:39.384Z,81.67